Terminal Aerodrome Forecast
Issued by NWS

Home | Current Version | Previous Version | Graphics & Text | Print | Product List | Glossary On
Versions: 1 2 3 4 5 6 7 8 9 10 11 12 13 14 15 16 17 18 19 20 21 22 23 24 25 26 27 28 29 30 31
000
FTUS43 KGRB 281100
TAFRHI
TAF
KRHI 281122Z 2812/2912 32005KT P6SM SCT050
      TEMPO 2812/2816 BKN050
     FM281600 31009KT P6SM SCT050 BKN070
     FM290400 32004KT P6SM BKN070 BKN100=

USA.gov is the U.S. government's official web portal to all federal, state and local government web resources and services.